createdAt,value
2019-04-05T00:02:07.978Z,22.43
2019-04-05T00:04:59.192Z,23.53
2019-04-05T00:07:49.661Z,24.10
2019-04-05T00:10:39.822Z,25.37
2019-04-05T00:13:31.104Z,24.37
2019-04-05T00:16:21.583Z,23.87
2019-04-05T00:19:13.537Z,23.10
2019-04-05T00:22:05.881Z,23.67
2019-04-05T00:24:57.226Z,24.40
2019-04-05T00:27:48.409Z,24.37
2019-04-05T00:30:39.107Z,25.10
2019-04-05T00:33:30.102Z,22.97
2019-04-05T00:36:20.714Z,25.40
2019-04-05T00:39:11.177Z,25.37
2019-04-05T00:42:01.519Z,23.43
2019-04-05T00:44:53.067Z,23.90
2019-04-05T00:47:44.598Z,24.40
2019-04-05T00:50:36.021Z,23.53
2019-04-05T00:53:26.790Z,22.70
2019-04-05T00:56:17.390Z,23.73
2019-04-05T00:59:07.767Z,24.17
2019-04-05T01:01:58.856Z,24.37
2019-04-05T01:04:49.250Z,23.10
2019-04-05T01:07:40.398Z,24.80
2019-04-05T01:10:30.633Z,23.47
2019-04-05T01:13:21.597Z,25.10
2019-04-05T01:16:12.276Z,23.60
2019-04-05T01:19:04.135Z,25.23
2019-04-05T01:21:56.942Z,24.87
2019-04-05T01:24:47.599Z,23.67
2019-04-05T01:27:41.367Z,24.60
2019-04-05T01:30:31.579Z,24.60
2019-04-05T01:33:22.566Z,23.90
2019-04-05T01:36:13.000Z,24.20
2019-04-05T01:39:04.439Z,23.97
2019-04-05T01:41:54.926Z,23.47
2019-04-05T01:44:45.973Z,24.33
2019-04-05T01:47:36.892Z,23.57
2019-04-05T01:50:28.086Z,22.40
2019-04-05T01:53:19.534Z,24.43
2019-04-05T01:56:10.063Z,22.17
2019-04-05T01:59:00.609Z,24.70
2019-04-05T02:01:51.386Z,23.40
2019-04-05T02:04:41.655Z,23.50
2019-04-05T02:07:34.116Z,23.77
2019-04-05T02:10:24.367Z,22.37
2019-04-05T02:13:15.401Z,22.87
2019-04-05T02:16:06.927Z,23.47
2019-04-05T02:18:57.762Z,22.37
2019-04-05T02:21:48.115Z,22.30
2019-04-05T02:24:39.529Z,22.00
2019-04-05T02:27:29.748Z,23.10
2019-04-05T02:30:20.621Z,23.60
2019-04-05T02:33:11.701Z,24.57
2019-04-05T02:36:02.524Z,22.00
2019-04-05T02:38:53.822Z,23.67
2019-04-05T02:41:44.631Z,23.00
2019-04-05T02:44:37.099Z,23.57
2019-04-05T02:47:28.473Z,22.50
2019-04-05T02:50:21.242Z,22.67
2019-04-05T02:53:14.979Z,23.87
2019-04-05T02:56:06.369Z,23.57
2019-04-05T02:58:58.229Z,22.90
2019-04-05T03:01:50.803Z,24.47
2019-04-05T03:04:42.350Z,22.77
2019-04-05T03:07:32.865Z,24.77
2019-04-05T03:11:04.150Z,21.23
2019-04-05T03:13:57.620Z,21.73
2019-04-05T03:16:51.434Z,22.33
2019-04-05T03:19:43.188Z,22.10
2019-04-05T03:22:35.784Z,23.53
2019-04-05T03:25:26.590Z,22.57
2019-04-05T03:28:18.742Z,22.67
2019-04-05T03:31:10.179Z,22.83
2019-04-05T03:34:00.924Z,22.97
2019-04-05T03:36:52.225Z,21.77
2019-04-05T03:39:43.916Z,22.00
2019-04-05T03:42:35.548Z,21.90
2019-04-05T03:45:26.750Z,24.27
2019-04-05T03:48:18.008Z,22.50
2019-04-05T03:51:10.748Z,22.57
2019-04-05T03:54:01.283Z,22.87
2019-04-05T03:56:52.849Z,22.57
2019-04-05T03:59:43.992Z,23.90
2019-04-05T04:02:35.084Z,22.13
2019-04-05T04:05:26.903Z,23.23
2019-04-05T04:08:18.473Z,23.87
2019-04-05T04:11:09.984Z,23.77
2019-04-05T04:14:01.908Z,24.57
2019-04-05T04:16:54.210Z,23.23
2019-04-05T04:19:46.396Z,24.70
2019-04-05T04:22:36.858Z,25.07
2019-04-05T04:25:29.050Z,23.97
2019-04-05T04:28:21.059Z,23.73
2019-04-05T04:31:11.266Z,22.73
2019-04-05T04:34:02.888Z,24.00
2019-04-05T04:36:53.911Z,24.87
2019-04-05T04:39:45.464Z,22.47
2019-04-05T04:42:36.751Z,22.17
2019-04-05T04:45:27.860Z,23.43
2019-04-05T04:48:19.449Z,22.60
2019-04-05T04:51:10.601Z,23.60
2019-04-05T04:54:01.805Z,22.90
2019-04-05T04:56:52.339Z,24.27
2019-04-05T04:59:42.874Z,23.27
2019-04-05T05:02:33.318Z,23.90
2019-04-05T05:05:24.871Z,21.63
2019-04-05T05:08:15.201Z,21.80
2019-04-05T05:11:14.516Z,22.67
2019-04-05T05:13:59.009Z,22.87
2019-04-05T05:16:49.322Z,22.17
2019-04-05T05:19:40.477Z,21.77
2019-04-05T05:22:31.786Z,22.33
2019-04-05T05:25:23.082Z,23.07
2019-04-05T05:28:14.726Z,22.83
2019-04-05T05:31:05.200Z,23.90
2019-04-05T05:33:55.922Z,22.37
2019-04-05T05:36:46.828Z,22.23
2019-04-05T05:39:37.898Z,22.90
2019-04-05T05:42:28.827Z,23.83
2019-04-05T05:45:20.853Z,22.17
2019-04-05T05:48:12.047Z,22.37
2019-04-05T05:51:03.026Z,24.60
2019-04-05T05:53:53.671Z,23.77
2019-04-05T05:56:43.920Z,23.60
2019-04-05T05:59:34.861Z,24.53
2019-04-05T06:02:26.084Z,22.77
2019-04-05T06:05:16.635Z,22.07
2019-04-05T06:08:07.497Z,21.97
2019-04-05T06:10:59.231Z,23.70
2019-04-05T06:13:49.354Z,22.97
2019-04-05T06:16:46.383Z,22.40
2019-04-05T06:19:32.100Z,23.60
2019-04-05T06:22:23.230Z,23.60
2019-04-05T06:25:14.368Z,23.00
2019-04-05T06:28:05.701Z,22.97
2019-04-05T06:30:56.282Z,22.27
2019-04-05T06:33:46.413Z,22.37
2019-04-05T06:36:36.886Z,23.00
2019-04-05T06:39:27.441Z,22.53
2019-04-05T06:42:19.173Z,24.03
2019-04-05T06:45:10.675Z,21.80
2019-04-05T06:48:01.321Z,22.77
2019-04-05T06:50:53.395Z,22.50
2019-04-05T06:53:43.691Z,22.37
2019-04-05T06:56:35.104Z,21.80
2019-04-05T06:59:25.498Z,24.63
2019-04-05T07:02:18.527Z,24.37
2019-04-05T07:05:10.111Z,23.10
2019-04-05T07:08:00.502Z,23.27
2019-04-05T07:10:51.798Z,22.17
2019-04-05T07:13:43.273Z,22.10
2019-04-05T07:16:33.618Z,22.80
2019-04-05T07:19:25.231Z,20.20
2019-04-05T07:22:15.738Z,21.53
2019-04-05T07:25:07.554Z,21.83
2019-04-05T07:27:57.746Z,21.80
2019-04-05T07:30:48.078Z,21.20
2019-04-05T07:33:38.429Z,22.77
2019-04-05T07:36:29.606Z,21.90
2019-04-05T07:39:19.670Z,23.50
2019-04-05T07:42:10.362Z,22.60
2019-04-05T07:45:00.712Z,23.40
2019-04-05T07:47:52.796Z,23.57
2019-04-05T07:50:43.237Z,22.80
2019-04-05T07:53:34.314Z,22.47
2019-04-05T07:56:25.965Z,23.87
2019-04-05T07:59:20.756Z,22.27
2019-04-05T08:02:12.228Z,22.67
2019-04-05T08:05:02.613Z,22.77
2019-04-05T08:07:54.204Z,21.70
2019-04-05T08:10:45.787Z,22.43
2019-04-05T08:13:39.528Z,21.77
2019-04-05T08:16:30.301Z,23.37
2019-04-05T08:19:21.811Z,23.07
2019-04-05T08:22:13.346Z,24.27
2019-04-05T08:25:03.610Z,22.87
2019-04-05T08:27:54.841Z,22.40
2019-04-05T08:30:45.665Z,24.70
2019-04-05T08:33:36.748Z,26.57
2019-04-05T08:36:27.763Z,23.97
2019-04-05T08:39:18.436Z,24.50
2019-04-05T08:42:10.902Z,25.53
2019-04-05T08:45:01.714Z,25.20
2019-04-05T08:47:54.081Z,23.67
2019-04-05T08:50:45.640Z,23.40
2019-04-05T08:53:36.897Z,23.50
2019-04-05T08:56:27.530Z,25.20
2019-04-05T08:59:18.054Z,27.00
2019-04-05T09:02:09.079Z,23.80
2019-04-05T09:04:59.357Z,24.30
2019-04-05T09:07:50.515Z,24.10
2019-04-05T09:10:41.934Z,24.83
2019-04-05T09:13:34.942Z,22.60
2019-04-05T09:16:26.180Z,22.80
2019-04-05T09:19:23.339Z,23.00
2019-04-05T09:22:09.483Z,23.57
2019-04-05T09:25:00.645Z,25.00
2019-04-05T09:27:51.442Z,24.47
2019-04-05T09:30:42.661Z,23.80
2019-04-05T09:33:32.891Z,23.13
2019-04-05T09:36:23.930Z,25.00
2019-04-05T09:39:15.895Z,23.70
2019-04-05T09:42:06.630Z,24.10
2019-04-05T09:44:56.928Z,23.50
2019-04-05T09:47:48.178Z,23.50
2019-04-05T09:50:39.314Z,22.90
2019-04-05T09:53:29.966Z,28.00
2019-04-05T09:56:20.357Z,24.70
2019-04-05T09:59:11.663Z,23.77
2019-04-05T10:02:03.024Z,24.47
2019-04-05T10:04:53.158Z,24.30
2019-04-05T10:07:54.296Z,25.40
2019-04-05T10:10:36.092Z,23.53
2019-04-05T10:13:27.157Z,24.63
2019-04-05T10:16:17.541Z,25.67
2019-04-05T10:19:08.888Z,25.00
2019-04-05T10:21:59.776Z,24.60
2019-04-05T10:24:50.960Z,25.10
2019-04-05T10:27:41.232Z,26.70
2019-04-05T10:30:32.167Z,27.10
2019-04-05T10:33:22.545Z,26.27
2019-04-05T10:36:13.641Z,26.20
2019-04-05T10:39:06.581Z,26.13
2019-04-05T10:42:03.647Z,24.33
2019-04-05T10:44:50.391Z,26.00
2019-04-05T10:47:41.004Z,26.70
2019-04-05T10:50:32.254Z,24.50
2019-04-05T10:53:22.830Z,25.50
2019-04-05T10:56:14.403Z,29.27
2019-04-05T10:59:05.998Z,25.87
2019-04-05T11:01:57.433Z,27.87
2019-04-05T11:04:48.232Z,26.50
2019-04-05T11:07:38.763Z,28.57
2019-04-05T11:10:30.135Z,27.33
2019-04-05T11:13:20.643Z,26.97
2019-04-05T11:16:11.763Z,26.90
2019-04-05T11:19:02.902Z,30.33
2019-04-05T11:21:53.622Z,26.60
2019-04-05T11:24:45.236Z,26.80
2019-04-05T11:27:36.694Z,28.30
2019-04-05T11:30:43.165Z,26.77
2019-04-05T11:33:34.432Z,24.93
2019-04-05T11:36:26.238Z,26.30
2019-04-05T11:39:17.563Z,27.83
2019-04-05T11:42:08.684Z,28.20
2019-04-05T11:45:01.617Z,26.30
2019-04-05T11:47:53.790Z,25.50
2019-04-05T11:50:45.954Z,27.50
2019-04-05T11:53:36.921Z,26.70
2019-04-05T11:56:28.010Z,24.27
2019-04-05T11:59:20.855Z,24.73
2019-04-05T12:02:29.714Z,24.43
2019-04-05T12:05:22.888Z,23.70
2019-04-05T12:08:14.121Z,24.90
2019-04-05T12:11:05.559Z,27.07
2019-04-05T12:13:56.782Z,26.83
2019-04-05T12:16:46.812Z,29.73
2019-04-05T12:19:38.180Z,27.20
2019-04-05T12:22:29.471Z,26.60
2019-04-05T12:25:20.653Z,25.33
2019-04-05T12:28:11.595Z,28.13
2019-04-05T12:31:02.876Z,28.70
2019-04-05T12:33:53.140Z,29.73
2019-04-05T12:36:44.806Z,25.20
2019-04-05T12:39:37.100Z,23.67
2019-04-05T12:42:28.777Z,24.43
2019-04-05T12:45:19.362Z,24.30
2019-04-05T12:48:10.467Z,26.40
2019-04-05T12:51:02.168Z,26.33
2019-04-05T12:53:56.472Z,27.90
2019-04-05T12:56:45.824Z,29.60
2019-04-05T12:59:37.158Z,28.70
2019-04-05T13:02:33.335Z,31.83
2019-04-05T13:05:21.247Z,32.73
2019-04-05T13:08:12.385Z,31.43
2019-04-05T19:49:02.360Z,23.00
2019-04-05T19:51:57.137Z,24.50
2019-04-05T19:54:47.594Z,23.23
2019-04-05T19:57:39.242Z,24.00
2019-04-05T20:00:30.683Z,23.67
2019-04-05T20:03:21.722Z,22.10
2019-04-05T20:06:13.138Z,22.17
2019-04-05T20:09:06.720Z,22.57
2019-04-05T20:11:57.419Z,23.53
2019-04-05T20:18:19.096Z,23.17
2019-04-05T20:21:09.552Z,22.93
2019-04-05T20:24:09.415Z,23.10
2019-04-05T20:26:52.976Z,23.97
2019-04-05T20:29:43.157Z,22.20
2019-04-05T20:32:34.414Z,23.77
2019-04-05T20:35:25.719Z,22.73
2019-04-05T20:38:16.182Z,22.00
2019-04-05T20:41:07.919Z,22.83
2019-04-05T20:43:59.513Z,22.97
2019-04-05T20:46:50.761Z,22.27
2019-04-05T20:49:41.453Z,22.57
2019-04-05T20:52:31.977Z,22.97
2019-04-05T20:55:22.349Z,23.27
2019-04-05T20:58:13.612Z,21.97
2019-04-05T21:01:04.138Z,21.50
2019-04-05T21:03:55.151Z,22.83
2019-04-05T21:06:46.004Z,23.10
2019-04-05T21:09:37.308Z,23.60
2019-04-05T21:12:28.394Z,21.50
2019-04-05T21:15:19.596Z,22.80
2019-04-05T21:18:09.828Z,23.60
2019-04-05T21:21:02.506Z,22.00
2019-04-05T21:23:53.839Z,22.30
2019-04-05T21:26:44.315Z,21.93
2019-04-05T21:29:34.700Z,22.33
2019-04-05T21:32:25.936Z,22.23
2019-04-05T21:35:16.319Z,22.53
2019-04-05T21:38:06.812Z,22.43
2019-04-05T21:40:58.249Z,23.20
2019-04-05T21:43:48.718Z,22.47
2019-04-05T21:46:39.245Z,22.97
2019-04-05T21:49:29.668Z,22.60
2019-04-05T21:52:19.937Z,21.40
2019-04-05T21:55:11.410Z,22.30
2019-04-05T21:58:02.743Z,21.83
2019-04-05T22:00:57.946Z,21.57
2019-04-05T22:03:48.501Z,22.47
2019-04-05T22:06:38.951Z,24.17
2019-04-05T22:09:29.613Z,22.20
2019-04-05T22:12:21.008Z,22.30
2019-04-05T22:15:12.478Z,21.83
2019-04-05T22:18:03.208Z,22.57
2019-04-05T22:20:53.636Z,22.63
2019-04-05T22:23:45.030Z,20.40
2019-04-05T22:26:35.615Z,22.30
2019-04-05T22:29:26.800Z,23.60
2019-04-05T22:32:17.717Z,23.33
2019-04-05T22:35:08.345Z,22.70
2019-04-05T22:38:01.224Z,22.50
2019-04-05T22:40:52.101Z,21.40
2019-04-05T22:43:42.441Z,21.67
2019-04-05T22:46:33.768Z,21.97
2019-04-05T22:49:24.840Z,21.90
2019-04-05T22:52:15.904Z,20.43
2019-04-05T22:55:11.741Z,21.93
2019-04-05T22:57:59.894Z,20.67
2019-04-05T23:00:50.711Z,22.20
2019-04-05T23:03:42.099Z,20.40
2019-04-05T23:06:32.507Z,20.93
2019-04-05T23:09:23.729Z,19.77
2019-04-05T23:12:25.700Z,20.80
2019-04-05T23:15:16.229Z,21.07
2019-04-05T23:18:07.884Z,20.90
2019-04-05T23:20:58.249Z,22.00
2019-04-05T23:23:49.681Z,19.20
2019-04-05T23:26:40.074Z,19.87
2019-04-05T23:29:31.012Z,20.10
2019-04-05T23:32:22.327Z,19.87
2019-04-05T23:35:14.377Z,19.80
2019-04-05T23:38:04.595Z,21.67
2019-04-05T23:40:55.021Z,20.33
2019-04-05T23:43:47.162Z,19.90
2019-04-05T23:46:38.065Z,19.80
2019-04-05T23:49:29.035Z,19.17
2019-04-05T23:52:19.287Z,19.43
2019-04-05T23:55:10.018Z,19.17
2019-04-05T23:58:00.140Z,19.47
